Time;durP1;ratioP1;P1;durP2;ratioP2;P2;SDS_P1;SDS_P2;PMS_P1;PMS_P2;Temp;Humidity;BMP_temperature;BMP_pressure;BME280_temperature;BME280_humidity;BME280_pressure;Samples;Min_cycle;Max_cycle;Signal;HPM_P1;HPM_P2
2023/02/04 05:30:10;;;;;;;2.80;1.25;;;10.80;69.30;;;;;;6019877;23;20053;31
2023/02/04 05:32:36;;;;;;;2.83;1.55;;;10.80;69.30;;;;;;4889232;29;20457;-79
2023/02/04 05:35:02;;;;;;;2.70;1.65;;;10.80;69.50;;;;;;4915556;29;20080;-79
2023/02/04 05:37:28;;;;;;;1.98;1.55;;;10.70;69.70;;;;;;4902556;29;20032;-80
2023/02/04 05:39:53;;;;;;;2.38;1.63;;;10.70;69.80;;;;;;4901542;29;20040;-79
2023/02/04 05:42:19;;;;;;;3.85;1.83;;;10.80;69.80;;;;;;4902593;29;20120;-79
2023/02/04 05:44:45;;;;;;;3.35;1.80;;;10.80;69.90;;;;;;4902480;29;20033;-79
2023/02/04 05:47:10;;;;;;;2.50;1.65;;;10.80;69.80;;;;;;4901367;29;20069;-79
2023/02/04 05:49:36;;;;;;;2.22;1.48;;;10.70;70.10;;;;;;4916812;29;20443;-79
2023/02/04 05:52:02;;;;;;;2.67;1.60;;;10.70;70.10;;;;;;4912788;29;20036;-78
2023/02/04 05:54:27;;;;;;;2.53;1.48;;;10.70;70.40;;;;;;4902299;29;20036;-79
2023/02/04 05:56:53;;;;;;;3.10;2.10;;;10.70;70.60;;;;;;4902345;29;20064;-79
2023/02/04 05:59:18;;;;;;;3.92;1.77;;;10.70;70.50;;;;;;4901794;29;20463;-79
2023/02/04 06:01:44;;;;;;;3.80;1.77;;;10.70;70.90;;;;;;4899475;29;20080;-79
2023/02/04 06:04:10;;;;;;;2.92;1.95;;;10.70;71.50;;;;;;4909377;29;20392;-79
2023/02/04 06:06:35;;;;;;;2.85;1.73;;;10.60;71.60;;;;;;4906700;29;20024;-79
2023/02/04 06:09:01;;;;;;;4.20;2.03;;;10.60;71.70;;;;;;4921070;29;20028;-79
2023/02/04 06:11:27;;;;;;;7.13;2.03;;;10.60;72.10;;;;;;4910930;29;20539;-79
2023/02/04 06:13:52;;;;;;;3.90;1.95;;;10.70;72.00;;;;;;4899912;29;20112;-79
2023/02/04 06:16:18;;;;;;;5.72;2.35;;;10.70;72.00;;;;;;4902032;29;20056;-79
2023/02/04 06:18:44;;;;;;;5.43;2.47;;;10.70;72.10;;;;;;4901980;29;20571;-80
2023/02/04 06:21:09;;;;;;;3.53;2.10;;;10.70;72.40;;;;;;4907294;29;20381;-79
2023/02/04 06:23:35;;;;;;;3.13;2.42;;;10.70;72.50;;;;;;4917107;29;20070;-80
2023/02/04 06:26:01;;;;;;;3.30;2.15;;;10.80;72.30;;;;;;4901478;29;20031;-79
2023/02/04 06:28:27;;;;;;;4.68;2.47;;;10.70;72.40;;;;;;4899928;29;20036;-80
2023/02/04 06:30:53;;;;;;;6.20;2.63;;;10.70;72.50;;;;;;4916457;29;20052;-82
2023/02/04 06:33:20;;;;;;;4.00;2.80;;;10.70;72.70;;;;;;4916658;29;20033;-81
2023/02/04 06:35:46;;;;;;;5.07;3.80;;;10.70;72.90;;;;;;4902397;29;20036;-81
2023/02/04 06:38:12;;;;;;;5.93;3.20;;;10.70;72.90;;;;;;4899901;29;20446;-82
2023/02/04 06:40:37;;;;;;;5.18;3.20;;;10.60;73.10;;;;;;4916343;29;20024;-82
2023/02/04 06:43:03;;;;;;;4.30;2.88;;;10.60;73.00;;;;;;4900851;29;20246;-81
2023/02/04 06:45:29;;;;;;;4.10;2.35;;;10.70;73.10;;;;;;4901398;29;20036;-79
2023/02/04 06:47:54;;;;;;;2.80;1.90;;;10.60;73.20;;;;;;4894783;29;20029;-80
2023/02/04 06:50:20;;;;;;;2.78;2.45;;;10.60;73.50;;;;;;4885572;29;20480;-80
2023/02/04 06:52:46;;;;;;;5.55;2.47;;;10.60;73.80;;;;;;4883065;29;20036;-83
2023/02/04 06:55:16;;;;;;;7.72;2.58;;;10.60;74.00;;;;;;4897974;29;20032;-85
2023/02/04 06:57:42;;;;;;;4.72;2.45;;;10.50;74.10;;;;;;4902144;29;20037;-90
2023/02/04 07:00:15;;;;;;;3.85;2.83;;;10.50;74.30;;;;;;4902483;29;20119;-84
2023/02/04 07:02:41;;;;;;;5.43;2.20;;;10.50;74.60;;;;;;4912147;29;20484;-81
2023/02/04 07:05:08;;;;;;;4.93;2.53;;;10.50;74.60;;;;;;4896861;29;20076;-81
2023/02/04 07:07:33;;;;;;;3.90;2.17;;;10.60;74.60;;;;;;4883824;29;20064;-84
2023/02/04 07:09:59;;;;;;;4.20;2.70;;;10.60;74.60;;;;;;4894077;29;20076;-80
2023/02/04 07:12:25;;;;;;;3.38;2.17;;;10.60;74.60;;;;;;4921045;29;20107;-81
2023/02/04 07:14:50;;;;;;;6.55;2.55;;;10.60;74.70;;;;;;4904807;29;20036;-85
2023/02/04 07:17:16;;;;;;;7.35;2.40;;;10.60;74.80;;;;;;4900198;29;20056;-79
2023/02/04 07:19:42;;;;;;;5.90;2.72;;;10.50;74.90;;;;;;4900802;29;20033;-79
2023/02/04 07:22:08;;;;;;;6.57;2.38;;;10.50;74.90;;;;;;4900268;29;20522;-86
2023/02/04 07:24:33;;;;;;;3.33;2.38;;;10.50;75.10;;;;;;4918679;29;20032;-82
2023/02/04 07:26:59;;;;;;;5.43;2.40;;;10.50;75.20;;;;;;4899438;29;20040;-81
2023/02/04 07:29:24;;;;;;;3.33;2.42;;;10.50;75.20;;;;;;4902058;29;20480;-84
2023/02/04 07:31:51;;;;;;;3.58;2.40;;;10.50;75.50;;;;;;4899374;29;20377;-84
2023/02/04 07:34:17;;;;;;;5.55;2.40;;;10.60;75.40;;;;;;4914340;29;20084;-79
2023/02/04 07:36:43;;;;;;;4.72;3.10;;;10.50;75.50;;;;;;4900498;29;20036;-81
2023/02/04 07:39:09;;;;;;;6.25;2.55;;;10.50;75.60;;;;;;4900144;29;20042;-82
2023/02/04 07:41:35;;;;;;;4.47;2.70;;;10.50;75.40;;;;;;4912443;29;20032;-83
2023/02/04 07:44:01;;;;;;;5.10;2.38;;;10.50;75.60;;;;;;4895201;29;20029;-83
2023/02/04 07:46:30;;;;;;;5.65;2.50;;;10.50;75.50;;;;;;4913461;29;20032;-81
2023/02/04 07:48:56;;;;;;;4.18;2.50;;;10.60;75.30;;;;;;4899509;29;20385;-87
2023/02/04 07:51:22;;;;;;;7.07;2.95;;;10.60;75.10;;;;;;4909580;29;20079;-81
2023/02/04 07:53:47;;;;;;;4.95;2.50;;;10.60;74.90;;;;;;4905317;29;20468;-90
2023/02/04 07:56:22;;;;;;;5.32;2.75;;;10.60;74.80;;;;;;4914051;29;20059;-89
2023/02/04 07:58:47;;;;;;;8.82;3.05;;;10.60;74.80;;;;;;4911841;29;20032;-86
2023/02/04 08:01:13;;;;;;;4.75;3.00;;;10.70;74.60;;;;;;4913513;29;20036;-87
2023/02/04 08:03:39;;;;;;;6.75;3.17;;;10.70;74.50;;;;;;4900498;29;20052;-86
2023/02/04 08:06:04;;;;;;;5.97;3.33;;;10.60;74.50;;;;;;4912509;29;20064;-87
2023/02/04 08:08:30;;;;;;;6.28;3.08;;;10.70;74.40;;;;;;4914040;29;20036;-87
2023/02/04 08:10:56;;;;;;;7.82;2.60;;;10.70;74.30;;;;;;4901813;29;20060;-87
2023/02/04 08:13:21;;;;;;;7.72;3.28;;;10.70;74.00;;;;;;4907305;29;20036;-86
2023/02/04 08:15:47;;;;;;;4.20;2.58;;;10.70;74.10;;;;;;4900677;29;20017;-86
2023/02/04 08:18:13;;;;;;;6.07;2.50;;;10.70;74.20;;;;;;4899176;29;20032;-87
2023/02/04 08:20:38;;;;;;;4.50;3.30;;;10.70;74.10;;;;;;4898380;29;20049;-86
2023/02/04 08:23:04;;;;;;;7.70;3.20;;;10.70;73.90;;;;;;4897611;29;20032;-87
2023/02/04 08:25:30;;;;;;;5.85;3.65;;;10.70;73.90;;;;;;4900074;29;20096;-86
2023/02/04 08:27:55;;;;;;;7.07;3.45;;;10.80;73.90;;;;;;4900264;29;20072;-86
2023/02/04 08:30:21;;;;;;;4.82;3.25;;;10.80;73.80;;;;;;4896286;29;20099;-87
2023/02/04 08:32:46;;;;;;;8.30;4.30;;;10.80;73.70;;;;;;4896935;29;20119;-87
2023/02/04 08:35:12;;;;;;;6.72;3.65;;;10.80;73.90;;;;;;4899197;29;20044;-87
2023/02/04 08:37:38;;;;;;;8.90;4.20;;;10.80;73.80;;;;;;4895612;29;20491;-87
2023/02/04 08:40:04;;;;;;;11.75;5.78;;;10.90;73.70;;;;;;4908291;29;20032;-87
2023/02/04 08:42:29;;;;;;;9.45;4.57;;;10.90;73.30;;;;;;4900525;29;20016;-86
2023/02/04 08:44:55;;;;;;;5.20;3.63;;;11.00;73.10;;;;;;4903651;29;20033;-87
2023/02/04 08:47:21;;;;;;;5.47;4.15;;;10.90;73.00;;;;;;4916371;29;20025;-86
2023/02/04 08:49:46;;;;;;;5.32;3.30;;;11.00;72.90;;;;;;4911690;29;20024;-87
2023/02/04 08:52:12;;;;;;;7.88;3.20;;;10.90;73.00;;;;;;4904219;29;20039;-86
2023/02/04 08:54:38;;;;;;;5.80;3.55;;;10.90;73.10;;;;;;4904181;29;20025;-79
2023/02/04 08:57:04;;;;;;;6.70;3.47;;;10.90;73.20;;;;;;4902302;29;20062;-86
2023/02/04 08:59:29;;;;;;;6.70;3.75;;;10.90;73.10;;;;;;4894396;29;20089;-86
2023/02/04 09:01:55;;;;;;;7.10;3.60;;;10.90;73.00;;;;;;4917960;29;20021;-86
2023/02/04 09:04:22;;;;;;;6.30;3.92;;;11.00;73.00;;;;;;4903635;29;20052;-86
2023/02/04 09:06:48;;;;;;;7.57;3.72;;;11.00;73.00;;;;;;4917571;29;20025;-87
2023/02/04 09:09:15;;;;;;;6.68;4.05;;;11.00;73.10;;;;;;4901965;29;20025;-88
2023/02/04 09:11:41;;;;;;;7.53;3.63;;;11.00;73.00;;;;;;4919643;29;20081;-87
2023/02/04 09:14:06;;;;;;;7.80;3.60;;;11.00;73.10;;;;;;4902624;29;20037;-87
2023/02/04 09:16:32;;;;;;;5.80;3.38;;;11.10;73.10;;;;;;4917599;29;20539;-88
2023/02/04 09:18:58;;;;;;;6.50;3.35;;;11.00;73.10;;;;;;4902150;29;20116;-88
2023/02/04 09:21:24;;;;;;;5.40;3.22;;;10.90;73.30;;;;;;4915999;29;20029;-88
2023/02/04 09:23:50;;;;;;;7.32;4.15;;;10.80;73.60;;;;;;4898805;29;21341;-89
2023/02/04 09:26:16;;;;;;;10.57;3.72;;;10.90;73.60;;;;;;4899640;29;20033;-88
2023/02/04 09:28:41;;;;;;;7.55;3.60;;;10.90;73.50;;;;;;4917686;29;20012;-88
2023/02/04 09:31:07;;;;;;;6.20;3.20;;;10.90;73.30;;;;;;4902815;29;20052;-88
2023/02/04 09:33:34;;;;;;;6.25;4.03;;;11.10;73.20;;;;;;4900979;29;20484;-87
2023/02/04 09:35:59;;;;;;;6.93;3.67;;;11.10;73.10;;;;;;4917381;29;20032;-88
2023/02/04 09:38:25;;;;;;;8.40;3.88;;;11.20;72.90;;;;;;4916179;29;20119;-88
2023/02/04 09:40:56;;;;;;;5.30;3.30;;;11.20;72.80;;;;;;4917623;29;20039;-87
2023/02/04 09:43:25;;;;;;;6.80;3.47;;;11.20;73.00;;;;;;4900978;29;20024;-87
2023/02/04 09:45:52;;;;;;;5.30;2.67;;;11.30;72.70;;;;;;4898863;29;20908;-89
2023/02/04 09:48:18;;;;;;;5.80;3.10;;;11.30;72.80;;;;;;4893499;29;20032;-86
2023/02/04 09:50:44;;;;;;;6.45;3.00;;;11.30;72.80;;;;;;4895784;29;20033;-87
2023/02/04 09:53:14;;;;;;;5.07;3.22;;;11.30;72.80;;;;;;4898651;29;20024;-86
2023/02/04 09:55:44;;;;;;;6.80;3.70;;;11.30;72.80;;;;;;4901993;29;20036;-86
2023/02/04 09:58:32;;;;;;;9.80;3.70;;;11.20;73.00;;;;;;4914862;29;20052;-87
2023/02/04 10:01:15;;;;;;;5.40;3.20;;;11.20;73.00;;;;;;4898486;29;20037;-87
2023/02/04 10:03:46;;;;;;;9.02;3.38;;;11.20;73.20;;;;;;4900205;29;20025;-87
2023/02/04 10:06:14;;;;;;;3.97;2.45;;;11.20;72.90;;;;;;4900214;29;20029;-87
2023/02/04 10:08:40;;;;;;;6.10;2.80;;;11.30;73.00;;;;;;4916280;29;20043;-87
2023/02/04 10:11:08;;;;;;;5.10;3.20;;;11.30;72.80;;;;;;4901714;29;20108;-87
2023/02/04 10:13:37;;;;;;;6.72;3.30;;;11.40;72.90;;;;;;4915571;29;20040;-87
2023/02/04 10:16:18;;;;;;;7.88;3.50;;;11.50;72.80;;;;;;4901849;29;20103;-87
2023/02/04 10:18:44;;;;;;;6.65;3.30;;;11.50;72.70;;;;;;4899240;29;20033;-87
2023/02/04 10:21:17;;;;;;;5.30;3.10;;;11.50;72.50;;;;;;4916470;29;20377;-87
2023/02/04 10:23:47;;;;;;;5.80;3.15;;;11.60;72.40;;;;;;4915343;29;20119;-87
2023/02/04 10:26:14;;;;;;;4.30;2.72;;;11.60;72.40;;;;;;4915262;29;20036;-88
2023/02/04 10:28:39;;;;;;;3.35;2.47;;;11.70;72.20;;;;;;4900675;29;20051;-87
2023/02/04 10:31:25;;;;;;;4.10;1.92;;;11.70;72.00;;;;;;4899457;29;20504;-87
2023/02/04 10:34:17;;;;;;;4.68;2.50;;;11.80;71.60;;;;;;4901069;29;20092;-87
2023/02/04 10:36:46;;;;;;;4.47;2.47;;;11.80;71.60;;;;;;4899215;29;20043;-87
2023/02/04 10:39:17;;;;;;;5.03;2.38;;;11.80;71.60;;;;;;4901157;29;20024;-86
2023/02/04 10:41:51;;;;;;;4.05;2.45;;;11.80;71.30;;;;;;4895567;29;20575;-87
2023/02/04 10:44:20;;;;;;;3.38;2.03;;;11.80;71.40;;;;;;4911853;29;20025;-86
2023/02/04 10:46:46;;;;;;;3.92;2.25;;;11.80;71.50;;;;;;4916440;29;20024;-88
2023/02/04 10:49:20;;;;;;;3.65;2.50;;;11.70;71.10;;;;;;4915014;29;20045;-86
2023/02/04 10:51:47;;;;;;;4.32;2.65;;;11.80;71.20;;;;;;4901725;29;20029;-86
2023/02/04 10:54:28;;;;;;;4.97;2.53;;;11.80;71.20;;;;;;4915743;29;20504;-85
2023/02/04 10:57:15;;;;;;;6.57;2.97;;;11.80;71.10;;;;;;4915808;29;20039;-86
2023/02/04 10:59:41;;;;;;;6.70;3.22;;;11.80;71.10;;;;;;4908568;29;20060;-86
2023/02/04 11:02:19;;;;;;;5.38;2.90;;;11.80;70.90;;;;;;4909422;29;20028;-87
2023/02/04 11:04:45;;;;;;;5.35;3.00;;;11.80;70.20;;;;;;4906816;29;20029;-87
2023/02/04 11:07:12;;;;;;;4.55;2.90;;;11.80;70.30;;;;;;4912593;29;20024;-86
2023/02/04 11:09:41;;;;;;;4.32;2.80;;;11.70;70.00;;;;;;4888374;29;20061;-87
2023/02/04 11:12:23;;;;;;;6.03;3.08;;;11.70;70.10;;;;;;4900855;29;20025;-87
2023/02/04 11:14:58;;;;;;;5.30;3.30;;;11.70;70.00;;;;;;4912923;29;20044;-86
2023/02/04 11:17:31;;;;;;;5.57;2.88;;;11.70;70.10;;;;;;4893677;29;20129;-86
2023/02/04 11:19:59;;;;;;;5.38;2.65;;;11.60;70.10;;;;;;4914939;29;20392;-87
2023/02/04 11:22:43;;;;;;;7.22;3.25;;;11.70;70.30;;;;;;4900562;29;20396;-87
2023/02/04 11:25:35;;;;;;;6.03;3.53;;;11.70;70.30;;;;;;4899092;29;20036;-87
2023/02/04 11:28:13;;;;;;;4.97;2.83;;;11.70;70.30;;;;;;4899541;29;20064;-87
2023/02/04 11:30:38;;;;;;;4.25;3.08;;;11.80;70.00;;;;;;4897887;29;20060;-87
2023/02/04 11:33:18;;;;;;;7.47;3.17;;;11.90;70.00;;;;;;4913666;29;20032;-86
2023/02/04 11:35:55;;;;;;;;;;;11.90;69.90;;;;;;4910605;29;20029;-86
2023/02/04 11:38:25;;;;;;;4.53;3.25;;;11.90;69.60;;;;;;4901334;29;19915;-86
2023/02/04 11:40:56;;;;;;;5.82;3.50;;;11.90;69.50;;;;;;4914375;29;20044;-86
2023/02/04 11:43:21;;;;;;;5.40;3.33;;;11.90;69.70;;;;;;4913962;29;20028;-86
2023/02/04 11:45:47;;;;;;;4.72;2.95;;;11.90;69.60;;;;;;4914433;29;20101;-86
2023/02/04 11:48:18;;;;;;;5.50;3.30;;;11.90;69.40;;;;;;4899351;29;20032;-87
2023/02/04 11:50:55;;;;;;;7.28;3.03;;;12.00;69.10;;;;;;4913389;29;20060;-87
2023/02/04 11:53:24;;;;;;;5.18;2.88;;;12.00;68.80;;;;;;4898800;29;20032;-87
2023/02/04 11:55:50;;;;;;;7.63;3.80;;;12.00;68.70;;;;;;4913286;29;20029;-86
2023/02/04 11:58:17;;;;;;;3.25;2.38;;;12.00;68.70;;;;;;4900369;29;20403;-87
2023/02/04 12:00:44;;;;;;;4.18;2.72;;;12.00;68.30;;;;;;4914760;29;20036;-87
2023/02/04 12:03:22;;;;;;;5.72;2.83;;;12.00;68.30;;;;;;4914830;29;20032;-86
2023/02/04 12:05:48;;;;;;;6.85;3.08;;;12.00;68.30;;;;;;4899643;29;20682;-86
2023/02/04 12:08:30;;;;;;;4.68;2.50;;;12.10;68.10;;;;;;4898832;29;20025;-86
2023/02/04 12:11:01;;;;;;;6.28;2.97;;;12.00;67.70;;;;;;4904551;29;20044;-79
2023/02/04 12:13:28;;;;;;;6.72;3.13;;;12.00;68.00;;;;;;4889510;29;20025;-87
2023/02/04 12:16:05;;;;;;;4.65;2.63;;;12.00;67.80;;;;;;4903193;29;20029;-84
2023/02/04 12:18:32;;;;;;;6.88;2.88;;;12.00;67.50;;;;;;4895638;29;20029;-83
2023/02/04 12:20:59;;;;;;;5.75;2.67;;;12.00;67.70;;;;;;4904330;29;20033;-78
2023/02/04 12:23:27;;;;;;;5.35;3.15;;;12.00;67.90;;;;;;4902557;29;20037;-77
2023/02/04 12:25:53;;;;;;;4.25;2.58;;;12.10;68.00;;;;;;4918355;29;20456;-79
2023/02/04 12:28:19;;;;;;;3.92;2.72;;;12.10;67.70;;;;;;4923038;29;20373;-85
2023/02/04 12:30:45;;;;;;;7.35;3.25;;;12.10;67.40;;;;;;4907330;29;20056;-77
2023/02/04 12:33:10;;;;;;;4.88;3.53;;;12.10;67.30;;;;;;4906929;29;20064;-81
2023/02/04 12:35:36;;;;;;;4.75;2.83;;;12.20;67.40;;;;;;4903284;29;20056;-81
2023/02/04 12:38:02;;;;;;;8.20;3.75;;;12.20;67.10;;;;;;4902605;29;20052;-78
2023/02/04 12:40:28;;;;;;;4.35;2.88;;;12.20;67.10;;;;;;4903133;29;20043;-80
2023/02/04 12:42:54;;;;;;;6.68;3.65;;;12.10;66.90;;;;;;4903918;29;20820;-85
2023/02/04 12:45:19;;;;;;;5.65;3.15;;;12.10;66.80;;;;;;4903809;29;20021;-82
2023/02/04 12:47:48;;;;;;;4.53;3.88;;;12.10;67.10;;;;;;4902843;29;20043;-78
2023/02/04 12:50:21;;;;;;;6.65;2.97;;;12.10;67.10;;;;;;4903836;29;20083;-79
2023/02/04 12:52:51;;;;;;;4.25;2.67;;;12.10;66.70;;;;;;4902596;29;20039;-81
2023/02/04 12:55:17;;;;;;;7.68;2.40;;;12.10;66.30;;;;;;4903655;29;20032;-80
2023/02/04 12:57:43;;;;;;;6.13;2.55;;;12.10;66.30;;;;;;4903724;29;20484;-81
2023/02/04 13:00:09;;;;;;;6.07;2.45;;;12.10;66.30;;;;;;4902495;29;20116;-82
2023/02/04 13:02:35;;;;;;;5.90;2.35;;;12.00;65.90;;;;;;4901894;29;20039;-76
2023/02/04 13:05:01;;;;;;;3.42;1.98;;;12.10;65.90;;;;;;4898555;29;20032;-80
2023/02/04 13:07:26;;;;;;;3.25;2.15;;;12.10;65.60;;;;;;4903353;29;20031;-78
2023/02/04 13:09:52;;;;;;;4.43;2.25;;;12.20;65.30;;;;;;4903154;29;20108;-81
2023/02/04 13:12:18;;;;;;;2.58;2.00;;;12.20;65.50;;;;;;4902343;29;20032;-79
2023/02/04 13:14:44;;;;;;;3.13;1.70;;;12.20;65.50;;;;;;4900541;29;20024;-79
2023/02/04 13:17:09;;;;;;;4.50;1.95;;;12.20;65.40;;;;;;4903727;29;20028;-80
2023/02/04 13:19:35;;;;;;;3.20;2.10;;;12.20;65.30;;;;;;4902992;29;20043;-79
2023/02/04 13:22:01;;;;;;;5.30;2.65;;;12.20;65.30;;;;;;4902896;29;20598;-79
2023/02/04 13:24:27;;;;;;;3.65;2.58;;;12.20;64.90;;;;;;4903560;29;20040;-80
2023/02/04 13:26:53;;;;;;;3.75;2.85;;;12.10;65.00;;;;;;4902764;29;20028;-79
2023/02/04 13:29:20;;;;;;;3.78;2.97;;;12.10;65.30;;;;;;4918578;29;20079;-79
2023/02/04 13:31:46;;;;;;;3.00;2.33;;;12.10;65.40;;;;;;4901489;29;20056;-79
2023/02/04 13:34:12;;;;;;;2.50;1.65;;;12.00;64.90;;;;;;4902228;29;20032;-79
2023/02/04 13:36:37;;;;;;;3.83;2.10;;;12.10;64.90;;;;;;4914413;29;20047;-79
2023/02/04 13:39:03;;;;;;;2.13;1.80;;;12.00;64.80;;;;;;4912608;29;20032;-79
2023/02/04 13:41:29;;;;;;;3.92;3.55;;;12.00;64.80;;;;;;4901148;29;20124;-79
2023/02/04 13:43:56;;;;;;;4.07;3.20;;;12.10;64.70;;;;;;4897103;29;20039;-79
2023/02/04 13:46:22;;;;;;;4.10;2.00;;;12.00;64.30;;;;;;4898857;29;20524;-79
2023/02/04 13:48:49;;;;;;;2.33;1.50;;;11.90;64.30;;;;;;4899244;29;20029;-79
2023/02/04 13:51:15;;;;;;;3.75;2.58;;;11.90;64.20;;;;;;4916099;29;20627;-79
2023/02/04 13:53:40;;;;;;;3.53;2.40;;;11.90;64.20;;;;;;4900179;29;20056;-79
2023/02/04 13:56:06;;;;;;;2.10;1.92;;;11.90;63.90;;;;;;4902645;29;20055;-80
2023/02/04 13:58:32;;;;;;;3.03;2.83;;;12.00;64.30;;;;;;4900925;29;20029;-79
2023/02/04 14:00:58;;;;;;;4.05;3.50;;;11.90;64.30;;;;;;4900687;29;20044;-80
2023/02/04 14:03:25;;;;;;;3.85;1.83;;;12.00;64.40;;;;;;4860496;29;20111;-81
2023/02/04 14:05:51;;;;;;;5.63;3.22;;;12.00;64.20;;;;;;4896120;29;20029;-81
2023/02/04 14:08:20;;;;;;;5.07;3.47;;;12.00;63.90;;;;;;4914962;29;20084;-80
2023/02/04 14:10:47;;;;;;;3.40;2.70;;;12.00;64.30;;;;;;4901194;29;20087;-79
2023/02/04 14:13:13;;;;;;;2.90;1.70;;;12.00;64.30;;;;;;4897795;29;20032;-80
2023/02/04 14:15:40;;;;;;;3.13;1.60;;;12.00;63.90;;;;;;4897361;29;20028;-80
2023/02/04 14:18:06;;;;;;;1.98;1.33;;;11.90;63.90;;;;;;4895662;29;20036;-79
2023/02/04 14:20:32;;;;;;;2.25;2.05;;;12.00;64.40;;;;;;4900587;29;20028;-80
2023/02/04 14:22:58;;;;;;;4.65;2.50;;;11.90;63.40;;;;;;4898162;29;20032;-79
2023/02/04 14:25:24;;;;;;;3.40;2.25;;;11.90;63.40;;;;;;4899721;29;20037;-79
2023/02/04 14:27:50;;;;;;;3.38;2.15;;;11.80;63.50;;;;;;4896794;29;20462;-79
2023/02/04 14:30:21;;;;;;;4.05;2.78;;;11.80;63.90;;;;;;4899068;29;20510;-79
2023/02/04 14:32:46;;;;;;;2.83;1.70;;;11.80;63.90;;;;;;4897405;29;20040;-79
2023/02/04 14:35:13;;;;;;;4.18;3.30;;;11.90;64.00;;;;;;4894835;29;20514;-79
2023/02/04 14:37:39;;;;;;;6.53;2.95;;;11.80;63.50;;;;;;4897570;29;20503;-79
2023/02/04 14:40:05;;;;;;;4.00;2.67;;;11.80;64.00;;;;;;4898832;29;20055;-79
2023/02/04 14:42:31;;;;;;;2.70;1.23;;;11.80;63.90;;;;;;4900430;29;20467;-78
2023/02/04 14:44:57;;;;;;;5.03;1.83;;;11.80;63.90;;;;;;4912927;29;20033;-78
2023/02/04 14:47:24;;;;;;;5.97;1.73;;;11.80;64.10;;;;;;4900026;29;20035;-79
2023/02/04 14:49:49;;;;;;;2.25;1.38;;;11.80;64.20;;;;;;4897109;29;20047;-79
2023/02/04 14:52:15;;;;;;;2.33;1.40;;;11.70;64.40;;;;;;4899336;29;20154;-79
2023/02/04 14:54:41;;;;;;;2.67;1.60;;;11.70;64.60;;;;;;4899324;29;20043;-79
2023/02/04 14:57:10;;;;;;;3.60;1.30;;;11.80;64.60;;;;;;4900285;29;20028;-79
2023/02/04 14:59:37;;;;;;;2.00;1.35;;;11.80;64.00;;;;;;4900152;29;20036;-78
2023/02/04 15:02:03;;;;;;;5.28;1.10;;;11.80;63.90;;;;;;4900162;29;20146;-78
2023/02/04 15:04:28;;;;;;;6.10;1.77;;;11.80;63.00;;;;;;4899033;29;20044;-78
2023/02/04 15:06:56;;;;;;;2.63;1.50;;;11.70;62.90;;;;;;4911009;29;20511;-78
2023/02/04 15:09:22;;;;;;;2.45;1.50;;;11.70;63.30;;;;;;4910459;29;20033;-78
2023/02/04 15:11:48;;;;;;;2.03;1.08;;;11.70;62.70;;;;;;4898853;29;20025;-78
2023/02/04 15:14:13;;;;;;;4.03;1.70;;;11.70;62.90;;;;;;4890951;29;20071;-78
2023/02/04 15:16:41;;;;;;;2.47;1.90;;;11.70;62.80;;;;;;4899546;29;20029;-78
2023/02/04 15:19:07;;;;;;;2.40;1.85;;;11.80;63.20;;;;;;4862848;29;20033;-78
2023/02/04 15:21:33;;;;;;;3.72;1.42;;;11.80;63.00;;;;;;4893284;29;20403;-78
2023/02/04 15:23:59;;;;;;;2.65;1.77;;;11.70;62.70;;;;;;4897096;29;20029;-78
2023/02/04 15:26:25;;;;;;;4.80;2.58;;;11.70;62.50;;;;;;4897820;29;20131;-81
2023/02/04 15:28:50;;;;;;;3.75;1.50;;;11.70;62.10;;;;;;4880056;29;20064;-79
2023/02/04 15:31:16;;;;;;;5.22;2.45;;;11.60;62.50;;;;;;4906066;29;20060;-77
2023/02/04 15:33:42;;;;;;;1.85;1.35;;;11.60;62.70;;;;;;4897651;29;20064;-78
2023/02/04 15:36:07;;;;;;;3.05;1.80;;;11.60;62.40;;;;;;4898016;29;20116;-78
2023/02/04 15:38:33;;;;;;;2.50;1.58;;;11.60;62.70;;;;;;4898066;29;20114;-77
2023/02/04 15:40:59;;;;;;;4.68;2.00;;;11.60;62.80;;;;;;4896692;29;20036;-76
2023/02/04 15:43:24;;;;;;;5.10;2.38;;;11.50;62.40;;;;;;4910083;29;20380;-82
2023/02/04 15:45:50;;;;;;;3.58;1.33;;;11.60;62.90;;;;;;4884010;29;21223;-75
2023/02/04 15:48:17;;;;;;;4.55;1.58;;;11.50;61.40;;;;;;4896395;29;20032;-76
2023/02/04 15:50:43;;;;;;;8.68;2.22;;;11.40;62.00;;;;;;4899734;29;20559;-76
2023/02/04 15:53:08;;;;;;;5.20;1.60;;;11.40;62.10;;;;;;4896618;29;20068;-75
2023/02/04 15:55:34;;;;;;;3.58;1.50;;;11.40;62.30;;;;;;4898681;29;20040;-76
2023/02/04 15:58:01;;;;;;;3.70;2.40;;;11.40;61.90;;;;;;4898985;29;20078;-76
2023/02/04 16:00:28;;;;;;;2.13;1.88;;;11.40;61.60;;;;;;4898917;29;20116;-75
2023/02/04 16:02:53;;;;;;;4.85;2.13;;;11.30;62.00;;;;;;4900013;29;20683;-74
2023/02/04 16:05:19;;;;;;;4.28;1.88;;;11.40;62.20;;;;;;4900420;29;20029;-76
2023/02/04 16:07:44;;;;;;;6.13;2.00;;;11.50;62.00;;;;;;4897297;29;20028;-75
2023/02/04 16:10:10;;;;;;;5.03;2.08;;;11.50;62.20;;;;;;4898072;29;20040;-74
2023/02/04 16:12:36;;;;;;;3.10;1.90;;;11.50;62.00;;;;;;4897869;29;20036;-75
2023/02/04 16:15:02;;;;;;;3.58;2.78;;;11.50;62.10;;;;;;4890638;29;20024;-73
2023/02/04 16:17:27;;;;;;;2.13;1.70;;;11.50;62.30;;;;;;4912134;29;20036;-76
2023/02/04 16:19:53;;;;;;;3.42;2.10;;;11.40;62.30;;;;;;4897799;29;20060;-73
2023/02/04 16:22:18;;;;;;;2.55;1.98;;;11.40;62.50;;;;;;4900546;29;20029;-75
2023/02/04 16:24:44;;;;;;;5.22;2.25;;;11.40;62.70;;;;;;4899517;29;20511;-76
2023/02/04 16:27:10;;;;;;;8.75;3.10;;;11.30;62.60;;;;;;4905238;29;20078;-76
2023/02/04 16:29:35;;;;;;;6.82;2.65;;;11.30;63.10;;;;;;4898162;29;20571;-76
2023/02/04 16:32:01;;;;;;;6.15;3.15;;;11.30;64.20;;;;;;4898762;29;20036;-74
2023/02/04 16:34:28;;;;;;;8.95;4.82;;;11.30;63.20;;;;;;4899451;29;20040;-74
2023/02/04 16:36:53;;;;;;;6.93;3.20;;;11.30;63.10;;;;;;4898403;29;20127;-75
2023/02/04 16:39:19;;;;;;;6.68;4.13;;;11.30;63.10;;;;;;4897767;29;20164;-75
2023/02/04 16:41:45;;;;;;;2.95;2.65;;;11.40;63.50;;;;;;4897547;29;20048;-74
2023/02/04 16:44:11;;;;;;;5.72;2.92;;;11.30;63.00;;;;;;4899773;29;20500;-75
2023/02/04 16:46:36;;;;;;;4.03;2.60;;;11.30;62.80;;;;;;4899653;29;20128;-77
2023/02/04 16:49:03;;;;;;;2.25;1.98;;;11.30;63.10;;;;;;4898328;29;20924;-75
2023/02/04 16:51:29;;;;;;;6.72;2.92;;;11.30;63.10;;;;;;4896135;29;20104;-75
2023/02/04 16:53:55;;;;;;;5.35;3.30;;;11.30;63.00;;;;;;4891957;29;20464;-74
2023/02/04 16:56:21;;;;;;;4.93;2.58;;;11.30;63.60;;;;;;4899544;29;20032;-75
2023/02/04 16:58:47;;;;;;;4.63;2.25;;;11.30;63.30;;;;;;4898647;29;20540;-75
2023/02/04 17:01:15;;;;;;;6.80;3.20;;;11.30;63.20;;;;;;4899433;29;20033;-75
2023/02/04 17:03:42;;;;;;;10.13;4.20;;;11.20;63.30;;;;;;4899492;29;20027;-76
2023/02/04 17:06:07;;;;;;;16.83;8.35;;;11.20;62.80;;;;;;4901404;29;20029;-76
2023/02/04 17:08:33;;;;;;;10.25;6.30;;;11.20;63.00;;;;;;4901113;29;20035;-76
2023/02/04 17:13:45;;;;;;;2.60;1.92;;;11.20;63.40;;;;;;4900015;29;20053;-78
2023/02/04 17:16:11;;;;;;;4.55;2.22;;;11.20;63.30;;;;;;4900841;29;20036;-77
2023/02/04 17:18:37;;;;;;;2.45;1.85;;;11.20;63.40;;;;;;4901946;29;20089;-76
2023/02/04 17:21:02;;;;;;;4.07;2.28;;;11.20;63.90;;;;;;4915231;29;20029;-77
2023/02/04 17:23:28;;;;;;;6.15;2.20;;;11.10;63.90;;;;;;4902232;29;20024;-85
2023/02/04 17:25:54;;;;;;;4.05;2.25;;;11.20;63.80;;;;;;4916124;29;20040;-78
2023/02/04 17:28:20;;;;;;;2.65;2.25;;;11.20;64.60;;;;;;4915230;29;20031;-76
2023/02/04 17:30:45;;;;;;;6.32;2.38;;;11.10;64.70;;;;;;4915938;29;20052;-78
2023/02/04 17:33:11;;;;;;;3.85;2.90;;;11.10;64.50;;;;;;4900413;29;20418;-79
2023/02/04 17:35:36;;;;;;;5.72;2.40;;;11.10;64.70;;;;;;4901499;29;20039;-76
2023/02/04 17:38:02;;;;;;;7.75;2.35;;;11.10;64.50;;;;;;4898019;29;20024;-75
2023/02/04 17:40:28;;;;;;;4.47;2.45;;;11.10;64.40;;;;;;4900854;29;20039;-77
2023/02/04 17:42:55;;;;;;;6.70;4.38;;;11.20;64.50;;;;;;4901427;29;20048;-75
2023/02/04 17:45:20;;;;;;;9.55;4.35;;;11.10;64.50;;;;;;4898633;29;20024;-79
2023/02/04 17:47:46;;;;;;;7.97;3.30;;;11.20;64.40;;;;;;4901029;29;20130;-77
2023/02/04 17:50:12;;;;;;;4.40;2.80;;;11.20;64.30;;;;;;4900786;29;20029;-78
2023/02/04 17:52:37;;;;;;;8.70;3.05;;;11.20;64.40;;;;;;4901084;29;20479;-75
2023/02/04 17:55:31;;;;;;;3.78;2.83;;;11.10;64.30;;;;;;4899590;29;20037;-76
2023/02/04 17:58:00;;;;;;;5.63;3.33;;;11.10;64.50;;;;;;4895341;29;20051;-76
2023/02/04 18:00:28;;;;;;;7.43;3.85;;;11.10;64.60;;;;;;4915837;29;20029;-81
2023/02/04 18:02:55;;;;;;;5.85;3.70;;;11.10;64.60;;;;;;4901194;29;20036;-83
2023/02/04 18:05:26;;;;;;;8.02;3.55;;;11.10;64.50;;;;;;4900258;29;20056;-77
2023/02/04 18:07:57;;;;;;;11.88;7.20;;;11.00;64.70;;;;;;4901097;29;20508;-81
2023/02/04 18:10:50;;;;;;;10.15;7.03;;;11.00;64.60;;;;;;4900579;29;20039;-78
2023/02/04 18:13:31;;;;;;;7.90;6.78;;;10.90;65.70;;;;;;4912944;29;20096;-81
2023/02/04 18:16:20;;;;;;;6.43;4.80;;;10.90;65.40;;;;;;4897308;29;20621;-79
2023/02/04 18:18:46;;;;;;;9.82;7.13;;;10.90;65.40;;;;;;4897931;29;20033;-82
2023/02/04 18:21:20;;;;;;;10.80;7.63;;;10.90;65.50;;;;;;4899531;29;20119;-79